sensor_id;sensor_type;location;lat;lon;timestamp;temperature;humidity
23271;DHT22;11804;51.118;17.058;2023-04-29T00:02:19;12.80;99.70
23271;DHT22;11804;51.118;17.058;2023-04-29T00:04:47;12.80;99.90
23271;DHT22;11804;51.118;17.058;2023-04-29T00:07:14;12.80;99.50
23271;DHT22;11804;51.118;17.058;2023-04-29T00:09:42;12.80;99.40
23271;DHT22;11804;51.118;17.058;2023-04-29T00:12:09;12.70;99.70
23271;DHT22;11804;51.118;17.058;2023-04-29T00:14:37;12.80;99.90
23271;DHT22;11804;51.118;17.058;2023-04-29T00:17:05;12.80;99.70
23271;DHT22;11804;51.118;17.058;2023-04-29T00:19:33;12.80;99.90
23271;DHT22;11804;51.118;17.058;2023-04-29T00:22:01;12.80;99.90
23271;DHT22;11804;51.118;17.058;2023-04-29T00:24:28;12.60;99.90
23271;DHT22;11804;51.118;17.058;2023-04-29T00:26:56;12.60;99.90
23271;DHT22;11804;51.118;17.058;2023-04-29T00:29:24;12.60;99.90
23271;DHT22;11804;51.118;17.058;2023-04-29T00:31:51;12.70;99.90
23271;DHT22;11804;51.118;17.058;2023-04-29T00:34:19;12.70;99.90
23271;DHT22;11804;51.118;17.058;2023-04-29T00:36:47;12.60;99.90
23271;DHT22;11804;51.118;17.058;2023-04-29T00:39:14;12.40;99.90
23271;DHT22;11804;51.118;17.058;2023-04-29T00:41:42;12.20;99.90
23271;DHT22;11804;51.118;17.058;2023-04-29T00:44:10;12.20;99.90
23271;DHT22;11804;51.118;17.058;2023-04-29T00:46:38;12.10;99.90
23271;DHT22;11804;51.118;17.058;2023-04-29T00:49:05;12.10;99.90
23271;DHT22;11804;51.118;17.058;2023-04-29T00:51:34;12.00;99.90
23271;DHT22;11804;51.118;17.058;2023-04-29T00:54:04;11.90;99.90
23271;DHT22;11804;51.118;17.058;2023-04-29T00:56:34;12.10;99.90
23271;DHT22;11804;51.118;17.058;2023-04-29T00:59:02;12.20;99.90
23271;DHT22;11804;51.118;17.058;2023-04-29T01:01:32;12.10;99.90
23271;DHT22;11804;51.118;17.058;2023-04-29T01:04:01;12.00;99.90
23271;DHT22;11804;51.118;17.058;2023-04-29T01:06:48;11.90;99.90
23271;DHT22;11804;51.118;17.058;2023-04-29T01:09:46;12.00;99.90
23271;DHT22;11804;51.118;17.058;2023-04-29T01:15:25;11.90;99.90
23271;DHT22;11804;51.118;17.058;2023-04-29T01:20:32;11.90;99.90
23271;DHT22;11804;51.118;17.058;2023-04-29T01:23:01;12.00;99.90
23271;DHT22;11804;51.118;17.058;2023-04-29T01:25:28;12.10;99.90
23271;DHT22;11804;51.118;17.058;2023-04-29T01:31:03;12.10;99.90
23271;DHT22;11804;51.118;17.058;2023-04-29T01:36:36;12.00;99.90
23271;DHT22;11804;51.118;17.058;2023-04-29T01:41:45;12.00;99.90
23271;DHT22;11804;51.118;17.058;2023-04-29T01:44:15;12.10;99.90
23271;DHT22;11804;51.118;17.058;2023-04-29T01:46:48;12.10;99.90
23271;DHT22;11804;51.118;17.058;2023-04-29T01:49:14;12.10;99.90
23271;DHT22;11804;51.118;17.058;2023-04-29T01:51:41;12.10;99.90
23271;DHT22;11804;51.118;17.058;2023-04-29T01:54:09;12.10;99.90
23271;DHT22;11804;51.118;17.058;2023-04-29T01:56:37;12.10;99.90
23271;DHT22;11804;51.118;17.058;2023-04-29T01:59:04;12.10;99.90
23271;DHT22;11804;51.118;17.058;2023-04-29T02:01:33;12.00;99.90
23271;DHT22;11804;51.118;17.058;2023-04-29T02:04:01;12.00;99.90
23271;DHT22;11804;51.118;17.058;2023-04-29T02:06:29;12.00;99.90
23271;DHT22;11804;51.118;17.058;2023-04-29T02:08:57;12.00;99.90
23271;DHT22;11804;51.118;17.058;2023-04-29T02:11:25;11.90;99.90
23271;DHT22;11804;51.118;17.058;2023-04-29T02:13:53;11.80;99.90
23271;DHT22;11804;51.118;17.058;2023-04-29T02:16:21;11.80;99.90
23271;DHT22;11804;51.118;17.058;2023-04-29T02:18:48;11.80;99.90
23271;DHT22;11804;51.118;17.058;2023-04-29T02:21:16;11.80;99.90
23271;DHT22;11804;51.118;17.058;2023-04-29T02:23:43;11.80;99.90
23271;DHT22;11804;51.118;17.058;2023-04-29T02:26:11;11.80;99.90
23271;DHT22;11804;51.118;17.058;2023-04-29T02:28:40;11.80;99.90
23271;DHT22;11804;51.118;17.058;2023-04-29T02:31:08;11.80;99.90
23271;DHT22;11804;51.118;17.058;2023-04-29T02:33:36;11.80;99.90
23271;DHT22;11804;51.118;17.058;2023-04-29T02:36:04;11.70;99.90
23271;DHT22;11804;51.118;17.058;2023-04-29T02:38:32;11.70;99.90
23271;DHT22;11804;51.118;17.058;2023-04-29T02:40:59;11.70;99.90
23271;DHT22;11804;51.118;17.058;2023-04-29T02:43:27;11.60;99.90
23271;DHT22;11804;51.118;17.058;2023-04-29T02:45:56;11.40;99.90
23271;DHT22;11804;51.118;17.058;2023-04-29T02:48:23;11.30;99.90
23271;DHT22;11804;51.118;17.058;2023-04-29T02:50:51;11.40;99.90
23271;DHT22;11804;51.118;17.058;2023-04-29T02:53:18;11.60;99.90
23271;DHT22;11804;51.118;17.058;2023-04-29T02:55:47;11.60;99.90
23271;DHT22;11804;51.118;17.058;2023-04-29T02:58:15;11.70;99.90
23271;DHT22;11804;51.118;17.058;2023-04-29T03:00:42;11.70;99.90
23271;DHT22;11804;51.118;17.058;2023-04-29T03:03:11;11.70;99.90
23271;DHT22;11804;51.118;17.058;2023-04-29T03:05:39;11.70;99.90
23271;DHT22;11804;51.118;17.058;2023-04-29T03:08:06;11.70;99.90
23271;DHT22;11804;51.118;17.058;2023-04-29T03:10:36;11.60;99.90
23271;DHT22;11804;51.118;17.058;2023-04-29T03:13:05;11.70;99.90
23271;DHT22;11804;51.118;17.058;2023-04-29T03:15:32;11.70;99.90
23271;DHT22;11804;51.118;17.058;2023-04-29T03:18:00;11.70;99.90
23271;DHT22;11804;51.118;17.058;2023-04-29T03:20:29;11.70;99.90
23271;DHT22;11804;51.118;17.058;2023-04-29T03:22:58;11.70;99.90
23271;DHT22;11804;51.118;17.058;2023-04-29T03:25:26;11.70;99.90
23271;DHT22;11804;51.118;17.058;2023-04-29T03:27:54;11.70;99.90
23271;DHT22;11804;51.118;17.058;2023-04-29T03:30:22;11.60;99.90
23271;DHT22;11804;51.118;17.058;2023-04-29T03:32:50;11.70;99.90
23271;DHT22;11804;51.118;17.058;2023-04-29T03:35:17;11.70;99.90
23271;DHT22;11804;51.118;17.058;2023-04-29T03:37:45;11.70;99.90
23271;DHT22;11804;51.118;17.058;2023-04-29T03:40:13;11.60;99.90
23271;DHT22;11804;51.118;17.058;2023-04-29T03:42:41;11.60;99.90
23271;DHT22;11804;51.118;17.058;2023-04-29T03:45:09;11.60;99.90
23271;DHT22;11804;51.118;17.058;2023-04-29T03:47:39;11.50;99.90
23271;DHT22;11804;51.118;17.058;2023-04-29T03:50:07;11.50;99.90
23271;DHT22;11804;51.118;17.058;2023-04-29T03:52:35;11.40;99.90
23271;DHT22;11804;51.118;17.058;2023-04-29T03:55:03;11.40;99.90
23271;DHT22;11804;51.118;17.058;2023-04-29T03:57:31;11.30;99.90
23271;DHT22;11804;51.118;17.058;2023-04-29T03:59:59;11.30;99.90
23271;DHT22;11804;51.118;17.058;2023-04-29T04:02:27;11.30;99.90
23271;DHT22;11804;51.118;17.058;2023-04-29T04:04:54;11.40;99.90
23271;DHT22;11804;51.118;17.058;2023-04-29T04:07:22;11.40;99.90
23271;DHT22;11804;51.118;17.058;2023-04-29T04:09:49;11.50;99.90
23271;DHT22;11804;51.118;17.058;2023-04-29T04:12:17;11.50;99.90
23271;DHT22;11804;51.118;17.058;2023-04-29T04:14:44;11.50;99.90
23271;DHT22;11804;51.118;17.058;2023-04-29T04:17:12;11.60;99.90
23271;DHT22;11804;51.118;17.058;2023-04-29T04:19:40;11.70;99.90
23271;DHT22;11804;51.118;17.058;2023-04-29T04:22:07;11.70;99.90
23271;DHT22;11804;51.118;17.058;2023-04-29T04:24:35;11.70;99.90
23271;DHT22;11804;51.118;17.058;2023-04-29T04:27:02;11.80;99.90
23271;DHT22;11804;51.118;17.058;2023-04-29T04:29:30;11.80;99.90
23271;DHT22;11804;51.118;17.058;2023-04-29T04:31:58;11.80;99.90
23271;DHT22;11804;51.118;17.058;2023-04-29T04:34:26;11.80;99.90
23271;DHT22;11804;51.118;17.058;2023-04-29T04:36:53;11.90;99.90
23271;DHT22;11804;51.118;17.058;2023-04-29T04:39:21;12.00;99.90
23271;DHT22;11804;51.118;17.058;2023-04-29T04:41:48;12.20;99.90
23271;DHT22;11804;51.118;17.058;2023-04-29T04:44:16;12.20;99.90
23271;DHT22;11804;51.118;17.058;2023-04-29T04:46:43;12.40;99.90
23271;DHT22;11804;51.118;17.058;2023-04-29T04:49:11;12.30;99.90
23271;DHT22;11804;51.118;17.058;2023-04-29T04:51:39;12.50;99.90
23271;DHT22;11804;51.118;17.058;2023-04-29T04:54:06;13.30;99.90
23271;DHT22;11804;51.118;17.058;2023-04-29T04:56:34;14.10;97.20
23271;DHT22;11804;51.118;17.058;2023-04-29T04:59:03;14.10;96.40
23271;DHT22;11804;51.118;17.058;2023-04-29T05:01:31;14.20;96.00
23271;DHT22;11804;51.118;17.058;2023-04-29T05:04:00;14.20;95.30
23271;DHT22;11804;51.118;17.058;2023-04-29T05:06:28;14.00;96.30
23271;DHT22;11804;51.118;17.058;2023-04-29T05:08:56;13.70;97.50
23271;DHT22;11804;51.118;17.058;2023-04-29T05:11:24;13.50;99.90
23271;DHT22;11804;51.118;17.058;2023-04-29T05:13:51;13.40;99.90
23271;DHT22;11804;51.118;17.058;2023-04-29T05:16:20;13.30;99.90
23271;DHT22;11804;51.118;17.058;2023-04-29T05:18:48;13.10;99.90
23271;DHT22;11804;51.118;17.058;2023-04-29T05:21:16;13.00;99.90
23271;DHT22;11804;51.118;17.058;2023-04-29T05:23:43;13.00;99.90
23271;DHT22;11804;51.118;17.058;2023-04-29T05:26:11;13.00;99.90
23271;DHT22;11804;51.118;17.058;2023-04-29T05:28:38;13.00;99.90
23271;DHT22;11804;51.118;17.058;2023-04-29T05:31:06;13.10;99.90
23271;DHT22;11804;51.118;17.058;2023-04-29T05:33:33;13.30;99.90
23271;DHT22;11804;51.118;17.058;2023-04-29T05:36:01;13.40;99.90
23271;DHT22;11804;51.118;17.058;2023-04-29T05:38:29;13.50;99.90
23271;DHT22;11804;51.118;17.058;2023-04-29T05:40:56;13.50;99.90
23271;DHT22;11804;51.118;17.058;2023-04-29T05:43:24;13.80;99.90
23271;DHT22;11804;51.118;17.058;2023-04-29T05:45:53;14.20;99.80
23271;DHT22;11804;51.118;17.058;2023-04-29T05:48:21;14.70;96.10
23271;DHT22;11804;51.118;17.058;2023-04-29T05:51:02;15.60;92.20
23271;DHT22;11804;51.118;17.058;2023-04-29T05:53:34;16.10;88.20
23271;DHT22;11804;51.118;17.058;2023-04-29T05:55:59;16.30;87.40
23271;DHT22;11804;51.118;17.058;2023-04-29T05:58:28;16.40;87.10
23271;DHT22;11804;51.118;17.058;2023-04-29T06:00:55;16.20;89.70
23271;DHT22;11804;51.118;17.058;2023-04-29T06:03:23;16.20;89.10
23271;DHT22;11804;51.118;17.058;2023-04-29T06:05:51;16.70;87.60
23271;DHT22;11804;51.118;17.058;2023-04-29T06:08:20;17.00;82.30
23271;DHT22;11804;51.118;17.058;2023-04-29T06:10:47;17.40;79.00
23271;DHT22;11804;51.118;17.058;2023-04-29T06:13:17;17.40;78.10
23271;DHT22;11804;51.118;17.058;2023-04-29T06:15:45;17.10;80.10
23271;DHT22;11804;51.118;17.058;2023-04-29T06:18:13;16.90;79.70
23271;DHT22;11804;51.118;17.058;2023-04-29T06:20:41;16.50;81.50
23271;DHT22;11804;51.118;17.058;2023-04-29T06:23:08;16.10;83.70
23271;DHT22;11804;51.118;17.058;2023-04-29T06:25:36;15.70;88.00
23271;DHT22;11804;51.118;17.058;2023-04-29T06:28:03;15.80;90.70
23271;DHT22;11804;51.118;17.058;2023-04-29T06:30:31;15.80;90.90
23271;DHT22;11804;51.118;17.058;2023-04-29T06:32:58;15.70;90.60
23271;DHT22;11804;51.118;17.058;2023-04-29T06:35:26;15.50;92.20
23271;DHT22;11804;51.118;17.058;2023-04-29T06:37:54;15.30;93.30
23271;DHT22;11804;51.118;17.058;2023-04-29T06:40:22;15.00;94.40
23271;DHT22;11804;51.118;17.058;2023-04-29T06:42:49;14.70;97.20
23271;DHT22;11804;51.118;17.058;2023-04-29T06:45:18;14.60;98.60
23271;DHT22;11804;51.118;17.058;2023-04-29T06:47:46;14.60;99.90
23271;DHT22;11804;51.118;17.058;2023-04-29T06:50:16;14.50;99.90
23271;DHT22;11804;51.118;17.058;2023-04-29T06:52:44;14.40;99.90
23271;DHT22;11804;51.118;17.058;2023-04-29T06:55:11;14.30;99.90
23271;DHT22;11804;51.118;17.058;2023-04-29T06:57:39;14.30;99.90
23271;DHT22;11804;51.118;17.058;2023-04-29T07:00:07;14.30;99.90
23271;DHT22;11804;51.118;17.058;2023-04-29T07:02:35;14.20;99.90
23271;DHT22;11804;51.118;17.058;2023-04-29T07:05:04;14.20;99.90
23271;DHT22;11804;51.118;17.058;2023-04-29T07:07:32;14.10;99.90
23271;DHT22;11804;51.118;17.058;2023-04-29T07:10:00;13.90;99.90
23271;DHT22;11804;51.118;17.058;2023-04-29T07:12:28;13.70;99.90
23271;DHT22;11804;51.118;17.058;2023-04-29T07:14:56;13.70;99.90
23271;DHT22;11804;51.118;17.058;2023-04-29T07:17:25;13.70;99.90
23271;DHT22;11804;51.118;17.058;2023-04-29T07:19:54;13.70;99.90
23271;DHT22;11804;51.118;17.058;2023-04-29T07:22:21;13.60;99.90
23271;DHT22;11804;51.118;17.058;2023-04-29T07:24:53;13.60;99.90
23271;DHT22;11804;51.118;17.058;2023-04-29T07:27:22;13.70;99.90
23271;DHT22;11804;51.118;17.058;2023-04-29T07:29:50;13.70;99.90
23271;DHT22;11804;51.118;17.058;2023-04-29T07:32:18;13.70;99.90
23271;DHT22;11804;51.118;17.058;2023-04-29T07:34:45;13.60;99.90
23271;DHT22;11804;51.118;17.058;2023-04-29T07:37:13;13.60;99.90
23271;DHT22;11804;51.118;17.058;2023-04-29T07:39:41;13.60;99.90
23271;DHT22;11804;51.118;17.058;2023-04-29T07:42:10;13.60;99.90
23271;DHT22;11804;51.118;17.058;2023-04-29T07:44:38;13.60;99.90
23271;DHT22;11804;51.118;17.058;2023-04-29T07:47:05;13.60;99.90
23271;DHT22;11804;51.118;17.058;2023-04-29T07:49:33;13.60;99.90
23271;DHT22;11804;51.118;17.058;2023-04-29T07:52:01;13.70;99.90
23271;DHT22;11804;51.118;17.058;2023-04-29T07:54:29;13.70;99.90
23271;DHT22;11804;51.118;17.058;2023-04-29T07:57:00;13.70;99.90
23271;DHT22;11804;51.118;17.058;2023-04-29T07:59:31;13.70;99.90
23271;DHT22;11804;51.118;17.058;2023-04-29T08:01:59;13.70;99.90
23271;DHT22;11804;51.118;17.058;2023-04-29T08:04:27;13.70;99.90
23271;DHT22;11804;51.118;17.058;2023-04-29T08:06:54;13.70;99.90
23271;DHT22;11804;51.118;17.058;2023-04-29T08:09:22;13.60;99.90
23271;DHT22;11804;51.118;17.058;2023-04-29T08:11:50;13.60;99.90
23271;DHT22;11804;51.118;17.058;2023-04-29T08:14:17;13.60;99.90
23271;DHT22;11804;51.118;17.058;2023-04-29T08:16:45;13.60;99.90
23271;DHT22;11804;51.118;17.058;2023-04-29T08:19:13;13.60;99.90
23271;DHT22;11804;51.118;17.058;2023-04-29T08:21:40;13.60;99.90
23271;DHT22;11804;51.118;17.058;2023-04-29T08:24:09;13.60;99.90
23271;DHT22;11804;51.118;17.058;2023-04-29T08:26:38;13.60;99.90
23271;DHT22;11804;51.118;17.058;2023-04-29T08:29:05;13.60;99.90
23271;DHT22;11804;51.118;17.058;2023-04-29T08:31:33;13.60;99.90
23271;DHT22;11804;51.118;17.058;2023-04-29T08:34:01;13.60;99.90
23271;DHT22;11804;51.118;17.058;2023-04-29T08:36:29;13.50;99.90
23271;DHT22;11804;51.118;17.058;2023-04-29T08:38:56;13.50;99.90
23271;DHT22;11804;51.118;17.058;2023-04-29T08:41:24;13.50;99.90
23271;DHT22;11804;51.118;17.058;2023-04-29T08:43:52;13.50;99.90
23271;DHT22;11804;51.118;17.058;2023-04-29T08:46:20;13.60;99.90
23271;DHT22;11804;51.118;17.058;2023-04-29T08:48:49;13.60;99.90
23271;DHT22;11804;51.118;17.058;2023-04-29T08:51:19;13.70;99.90
23271;DHT22;11804;51.118;17.058;2023-04-29T08:53:47;13.70;99.90
23271;DHT22;11804;51.118;17.058;2023-04-29T08:56:18;13.60;99.90
23271;DHT22;11804;51.118;17.058;2023-04-29T08:58:50;13.70;99.90
23271;DHT22;11804;51.118;17.058;2023-04-29T09:01:20;13.80;99.90
23271;DHT22;11804;51.118;17.058;2023-04-29T09:06:41;14.00;99.90
23271;DHT22;11804;51.118;17.058;2023-04-29T09:09:10;14.00;99.90
23271;DHT22;11804;51.118;17.058;2023-04-29T09:11:40;14.20;99.90
23271;DHT22;11804;51.118;17.058;2023-04-29T09:14:08;14.30;99.90
23271;DHT22;11804;51.118;17.058;2023-04-29T09:16:35;14.50;99.90
23271;DHT22;11804;51.118;17.058;2023-04-29T09:19:04;14.70;99.90
23271;DHT22;11804;51.118;17.058;2023-04-29T09:21:31;15.00;99.90
23271;DHT22;11804;51.118;17.058;2023-04-29T09:24:01;15.30;99.90
23271;DHT22;11804;51.118;17.058;2023-04-29T09:26:43;15.60;99.90
23271;DHT22;11804;51.118;17.058;2023-04-29T09:29:13;15.80;99.90
23271;DHT22;11804;51.118;17.058;2023-04-29T09:31:42;16.20;99.90
23271;DHT22;11804;51.118;17.058;2023-04-29T09:34:10;17.00;99.90
23271;DHT22;11804;51.118;17.058;2023-04-29T09:36:47;17.40;99.90
23271;DHT22;11804;51.118;17.058;2023-04-29T09:39:16;18.10;99.90
23271;DHT22;11804;51.118;17.058;2023-04-29T09:44:27;19.10;99.90
23271;DHT22;11804;51.118;17.058;2023-04-29T09:46:59;19.00;99.90
23271;DHT22;11804;51.118;17.058;2023-04-29T09:49:41;18.30;99.90
23271;DHT22;11804;51.118;17.058;2023-04-29T09:52:02;17.80;99.90
23271;DHT22;11804;51.118;17.058;2023-04-29T09:54:32;17.70;99.90
23271;DHT22;11804;51.118;17.058;2023-04-29T09:57:01;17.50;99.90
23271;DHT22;11804;51.118;17.058;2023-04-29T09:59:31;17.30;99.90
23271;DHT22;11804;51.118;17.058;2023-04-29T10:04:39;16.80;99.90
23271;DHT22;11804;51.118;17.058;2023-04-29T10:07:09;16.70;99.90
23271;DHT22;11804;51.118;17.058;2023-04-29T10:09:39;16.80;99.90
23271;DHT22;11804;51.118;17.058;2023-04-29T10:12:07;17.10;99.90
23271;DHT22;11804;51.118;17.058;2023-04-29T10:14:38;17.10;99.90
23271;DHT22;11804;51.118;17.058;2023-04-29T10:17:15;17.10;99.90
23271;DHT22;11804;51.118;17.058;2023-04-29T10:19:57;17.50;99.90
23271;DHT22;11804;51.118;17.058;2023-04-29T10:22:45;17.60;99.90
23271;DHT22;11804;51.118;17.058;2023-04-29T10:25:22;17.70;99.90
23271;DHT22;11804;51.118;17.058;2023-04-29T10:27:50;17.90;99.90
23271;DHT22;11804;51.118;17.058;2023-04-29T10:30:20;18.10;99.90
23271;DHT22;11804;51.118;17.058;2023-04-29T10:32:49;18.30;99.90
23271;DHT22;11804;51.118;17.058;2023-04-29T10:35:17;18.20;99.90
23271;DHT22;11804;51.118;17.058;2023-04-29T10:37:47;18.30;99.90
23271;DHT22;11804;51.118;17.058;2023-04-29T10:40:39;18.30;99.90
23271;DHT22;11804;51.118;17.058;2023-04-29T10:43:05;18.50;99.90
23271;DHT22;11804;51.118;17.058;2023-04-29T10:45:33;18.70;99.90
23271;DHT22;11804;51.118;17.058;2023-04-29T10:53:20;18.40;99.90
23271;DHT22;11804;51.118;17.058;2023-04-29T10:56:09;18.50;99.90
23271;DHT22;11804;51.118;17.058;2023-04-29T10:58:41;18.40;99.90
23271;DHT22;11804;51.118;17.058;2023-04-29T11:01:07;18.60;99.90
23271;DHT22;11804;51.118;17.058;2023-04-29T11:03:50;19.40;99.30
23271;DHT22;11804;51.118;17.058;2023-04-29T11:09:07;19.50;96.30
23271;DHT22;11804;51.118;17.058;2023-04-29T11:11:40;19.20;92.00
23271;DHT22;11804;51.118;17.058;2023-04-29T11:14:11;18.80;94.20
23271;DHT22;11804;51.118;17.058;2023-04-29T11:16:45;18.70;97.30
23271;DHT22;11804;51.118;17.058;2023-04-29T11:19:09;18.80;92.10
23271;DHT22;11804;51.118;17.058;2023-04-29T11:21:38;18.90;90.10
23271;DHT22;11804;51.118;17.058;2023-04-29T11:24:06;18.70;92.20
23271;DHT22;11804;51.118;17.058;2023-04-29T11:26:34;18.50;93.20
23271;DHT22;11804;51.118;17.058;2023-04-29T11:29:03;18.30;93.40
23271;DHT22;11804;51.118;17.058;2023-04-29T11:31:32;18.40;90.60
23271;DHT22;11804;51.118;17.058;2023-04-29T11:34:00;18.40;94.60
23271;DHT22;11804;51.118;17.058;2023-04-29T11:36:27;18.50;94.00
23271;DHT22;11804;51.118;17.058;2023-04-29T11:38:59;18.40;93.00
23271;DHT22;11804;51.118;17.058;2023-04-29T11:41:27;18.20;93.30
23271;DHT22;11804;51.118;17.058;2023-04-29T11:43:56;18.20;95.40
23271;DHT22;11804;51.118;17.058;2023-04-29T11:46:24;18.20;93.80
23271;DHT22;11804;51.118;17.058;2023-04-29T11:48:53;18.40;94.60
23271;DHT22;11804;51.118;17.058;2023-04-29T11:51:23;18.60;94.90
23271;DHT22;11804;51.118;17.058;2023-04-29T11:53:50;18.60;94.00
23271;DHT22;11804;51.118;17.058;2023-04-29T11:56:20;18.60;93.40
23271;DHT22;11804;51.118;17.058;2023-04-29T11:58:52;18.50;95.00
23271;DHT22;11804;51.118;17.058;2023-04-29T12:01:19;18.50;93.20
23271;DHT22;11804;51.118;17.058;2023-04-29T12:03:50;18.40;93.30
23271;DHT22;11804;51.118;17.058;2023-04-29T12:06:18;18.20;93.70
23271;DHT22;11804;51.118;17.058;2023-04-29T12:08:46;18.00;94.20
23271;DHT22;11804;51.118;17.058;2023-04-29T12:11:16;17.60;94.40
23271;DHT22;11804;51.118;17.058;2023-04-29T12:13:43;17.50;95.30
23271;DHT22;11804;51.118;17.058;2023-04-29T12:16:12;17.50;96.10
23271;DHT22;11804;51.118;17.058;2023-04-29T12:18:39;17.30;95.70
23271;DHT22;11804;51.118;17.058;2023-04-29T12:21:07;17.50;94.60
23271;DHT22;11804;51.118;17.058;2023-04-29T12:23:35;17.50;93.60
23271;DHT22;11804;51.118;17.058;2023-04-29T12:26:03;17.30;98.40
23271;DHT22;11804;51.118;17.058;2023-04-29T12:28:31;17.10;99.90
23271;DHT22;11804;51.118;17.058;2023-04-29T12:31:03;16.90;99.90
23271;DHT22;11804;51.118;17.058;2023-04-29T12:33:30;16.80;99.90
23271;DHT22;11804;51.118;17.058;2023-04-29T12:35:58;16.70;99.90
23271;DHT22;11804;51.118;17.058;2023-04-29T12:38:30;16.70;99.90
23271;DHT22;11804;51.118;17.058;2023-04-29T12:41:00;16.60;99.90
23271;DHT22;11804;51.118;17.058;2023-04-29T12:43:32;16.70;99.90
23271;DHT22;11804;51.118;17.058;2023-04-29T12:46:05;16.80;99.90
23271;DHT22;11804;51.118;17.058;2023-04-29T12:48:35;17.10;99.90
23271;DHT22;11804;51.118;17.058;2023-04-29T12:51:12;17.40;99.90
23271;DHT22;11804;51.118;17.058;2023-04-29T12:53:40;17.50;99.90
23271;DHT22;11804;51.118;17.058;2023-04-29T12:56:10;17.70;99.90
23271;DHT22;11804;51.118;17.058;2023-04-29T12:58:38;17.90;99.90
23271;DHT22;11804;51.118;17.058;2023-04-29T13:01:06;18.20;99.90
23271;DHT22;11804;51.118;17.058;2023-04-29T13:03:33;18.30;99.90
23271;DHT22;11804;51.118;17.058;2023-04-29T13:06:01;18.30;99.90
23271;DHT22;11804;51.118;17.058;2023-04-29T13:08:29;18.30;99.90
23271;DHT22;11804;51.118;17.058;2023-04-29T13:10:56;18.20;99.90
23271;DHT22;11804;51.118;17.058;2023-04-29T13:13:24;18.10;99.90
23271;DHT22;11804;51.118;17.058;2023-04-29T13:15:53;17.80;99.90
23271;DHT22;11804;51.118;17.058;2023-04-29T13:18:20;17.80;99.90
23271;DHT22;11804;51.118;17.058;2023-04-29T13:20:50;17.90;99.90
23271;DHT22;11804;51.118;17.058;2023-04-29T13:23:17;17.90;99.90
23271;DHT22;11804;51.118;17.058;2023-04-29T13:25:44;18.00;99.90
23271;DHT22;11804;51.118;17.058;2023-04-29T13:28:14;18.30;97.90
23271;DHT22;11804;51.118;17.058;2023-04-29T13:30:41;18.50;99.20
23271;DHT22;11804;51.118;17.058;2023-04-29T13:33:09;18.80;99.40
23271;DHT22;11804;51.118;17.058;2023-04-29T13:35:37;18.90;96.20
23271;DHT22;11804;51.118;17.058;2023-04-29T13:38:07;18.80;93.40
23271;DHT22;11804;51.118;17.058;2023-04-29T13:40:34;18.60;92.50
23271;DHT22;11804;51.118;17.058;2023-04-29T13:43:02;18.30;92.20
23271;DHT22;11804;51.118;17.058;2023-04-29T13:45:30;18.30;93.20
23271;DHT22;11804;51.118;17.058;2023-04-29T13:47:59;18.30;94.10
23271;DHT22;11804;51.118;17.058;2023-04-29T13:50:27;18.20;94.60
23271;DHT22;11804;51.118;17.058;2023-04-29T13:52:54;18.00;96.50
23271;DHT22;11804;51.118;17.058;2023-04-29T13:55:23;17.90;97.20
23271;DHT22;11804;51.118;17.058;2023-04-29T13:57:51;17.80;98.30
23271;DHT22;11804;51.118;17.058;2023-04-29T14:00:18;17.70;99.90
23271;DHT22;11804;51.118;17.058;2023-04-29T14:02:46;17.60;99.90
23271;DHT22;11804;51.118;17.058;2023-04-29T14:05:14;17.60;99.90
23271;DHT22;11804;51.118;17.058;2023-04-29T14:07:42;17.50;99.90
23271;DHT22;11804;51.118;17.058;2023-04-29T14:10:10;17.40;99.90
23271;DHT22;11804;51.118;17.058;2023-04-29T14:12:37;17.30;99.90
23271;DHT22;11804;51.118;17.058;2023-04-29T14:15:06;17.30;99.90
23271;DHT22;11804;51.118;17.058;2023-04-29T14:17:33;17.30;99.90
23271;DHT22;11804;51.118;17.058;2023-04-29T14:20:02;17.50;99.90
23271;DHT22;11804;51.118;17.058;2023-04-29T14:22:30;17.80;99.90
23271;DHT22;11804;51.118;17.058;2023-04-29T14:24:58;18.00;99.90
23271;DHT22;11804;51.118;17.058;2023-04-29T14:27:25;18.10;99.90
23271;DHT22;11804;51.118;17.058;2023-04-29T14:29:53;18.10;99.90
23271;DHT22;11804;51.118;17.058;2023-04-29T14:32:20;17.90;99.90
23271;DHT22;11804;51.118;17.058;2023-04-29T14:34:48;17.90;99.90
23271;DHT22;11804;51.118;17.058;2023-04-29T14:37:15;18.00;99.90
23271;DHT22;11804;51.118;17.058;2023-04-29T14:39:43;18.10;99.90
23271;DHT22;11804;51.118;17.058;2023-04-29T14:42:11;18.30;99.90
23271;DHT22;11804;51.118;17.058;2023-04-29T14:44:40;18.40;99.90
23271;DHT22;11804;51.118;17.058;2023-04-29T14:47:08;18.20;99.90
23271;DHT22;11804;51.118;17.058;2023-04-29T14:49:35;18.10;99.90
23271;DHT22;11804;51.118;17.058;2023-04-29T14:52:03;18.00;99.90
23271;DHT22;11804;51.118;17.058;2023-04-29T14:54:31;17.90;99.90
23271;DHT22;11804;51.118;17.058;2023-04-29T14:56:58;17.70;99.90
23271;DHT22;11804;51.118;17.058;2023-04-29T14:59:26;17.60;99.90
23271;DHT22;11804;51.118;17.058;2023-04-29T15:01:56;17.70;99.90
23271;DHT22;11804;51.118;17.058;2023-04-29T15:04:23;17.50;99.90
23271;DHT22;11804;51.118;17.058;2023-04-29T15:06:51;17.20;99.90
23271;DHT22;11804;51.118;17.058;2023-04-29T15:09:19;16.80;99.90
23271;DHT22;11804;51.118;17.058;2023-04-29T15:11:47;16.30;99.90
23271;DHT22;11804;51.118;17.058;2023-04-29T15:14:17;15.70;99.90
23271;DHT22;11804;51.118;17.058;2023-04-29T15:16:45;15.60;99.90
23271;DHT22;11804;51.118;17.058;2023-04-29T15:19:12;15.40;99.90
23271;DHT22;11804;51.118;17.058;2023-04-29T15:21:40;15.20;99.90
23271;DHT22;11804;51.118;17.058;2023-04-29T15:24:07;14.90;99.90
23271;DHT22;11804;51.118;17.058;2023-04-29T15:26:35;14.90;99.90
23271;DHT22;11804;51.118;17.058;2023-04-29T15:29:03;14.80;99.90
23271;DHT22;11804;51.118;17.058;2023-04-29T15:31:30;14.80;99.90
23271;DHT22;11804;51.118;17.058;2023-04-29T15:33:58;14.60;99.90
23271;DHT22;11804;51.118;17.058;2023-04-29T15:36:28;14.60;99.90
23271;DHT22;11804;51.118;17.058;2023-04-29T15:38:56;14.50;99.90
23271;DHT22;11804;51.118;17.058;2023-04-29T15:41:24;14.50;99.90
23271;DHT22;11804;51.118;17.058;2023-04-29T15:43:53;14.50;99.90
23271;DHT22;11804;51.118;17.058;2023-04-29T15:46:21;14.60;99.90
23271;DHT22;11804;51.118;17.058;2023-04-29T15:48:48;14.70;99.90
23271;DHT22;11804;51.118;17.058;2023-04-29T15:51:16;14.80;99.90
23271;DHT22;11804;51.118;17.058;2023-04-29T15:53:44;14.80;99.90
23271;DHT22;11804;51.118;17.058;2023-04-29T15:56:11;14.90;99.90